Time;durP1;ratioP1;P1;durP2;ratioP2;P2;SDS_P1;SDS_P2;PMS_P1;PMS_P2;Temp;Humidity;BMP_temperature;BMP_pressure;BME280_temperature;BME280_humidity;BME280_pressure;Samples;Min_cycle;Max_cycle;Signal;HPM_P1;HPM_P2
2022/01/02 00:00:42;;;;;;;34.80;15.77;;;;;;;4.94;100.00;95710.66;5055148;28;20374;-61
2022/01/02 00:03:09;;;;;;;39.28;18.90;;;;;;;4.98;100.00;95705.94;5069280;28;20056;-61
2022/01/02 00:05:38;;;;;;;38.80;17.48;;;;;;;4.96;100.00;95716.44;5069299;28;20076;-61
2022/01/02 00:08:07;;;;;;;27.77;15.05;;;;;;;4.84;100.00;95719.59;5069534;28;20414;-61
2022/01/02 00:10:47;;;;;;;18.75;11.52;;;;;;;4.66;100.00;95712.94;5065190;28;20048;-61
2022/01/02 00:13:22;;;;;;;30.35;15.32;;;;;;;4.64;100.00;95714.91;5066627;28;20536;-60
2022/01/02 00:15:52;;;;;;;25.35;11.10;;;;;;;4.57;100.00;95719.13;5066556;28;20041;-61
2022/01/02 00:18:19;;;;;;;22.92;11.30;;;;;;;4.62;100.00;95724.59;5064909;28;20044;-61
2022/01/02 00:20:48;;;;;;;25.35;12.10;;;;;;;4.64;100.00;95735.53;5065148;28;20041;-61
2022/01/02 00:23:21;;;;;;;28.00;14.13;;;;;;;4.64;100.00;95735.53;5065236;28;20497;-61
2022/01/02 00:25:53;;;;;;;28.75;13.68;;;;;;;4.67;100.00;95724.88;5068995;28;20063;-60
2022/01/02 00:28:20;;;;;;;22.33;11.95;;;;;;;4.71;100.00;95720.97;5065964;28;20055;-61
2022/01/02 00:30:48;;;;;;;28.67;12.85;;;;;;;4.73;100.00;95713.84;5064501;28;20115;-61
2022/01/02 00:33:15;;;;;;;25.90;13.20;;;;;;;4.78;100.00;95721.88;5066458;28;20494;-60
2022/01/02 00:35:42;;;;;;;31.52;15.68;;;;;;;4.81;100.00;95727.69;5067533;28;20055;-61
2022/01/02 00:38:22;;;;;;;25.58;13.80;;;;;;;4.89;100.00;95725.06;5064592;28;20079;-61
2022/01/02 00:40:52;;;;;;;23.00;12.98;;;;;;;4.56;100.00;95681.41;5063058;28;20041;-61
2022/01/02 00:43:51;;;;;;;28.38;15.07;;;;;;;4.84;100.00;95735.09;5063434;28;20063;-61
2022/01/02 00:46:18;;;;;;;27.75;13.57;;;;;;;4.84;100.00;95735.09;5051748;28;20052;-61
2022/01/02 00:48:47;;;;;;;21.85;10.88;;;;;;;4.83;100.00;95730.91;5063790;28;20432;-61
2022/01/02 00:51:26;;;;;;;27.25;13.63;;;;;;;4.87;100.00;95719.25;5064859;28;20052;-61
2022/01/02 00:53:57;;;;;;;25.90;14.02;;;;;;;4.87;100.00;95730.38;5063545;28;20123;-61
2022/01/02 00:56:28;;;;;;;22.10;12.90;;;;;;;4.91;100.00;95725.69;5067100;28;20471;-61
2022/01/02 00:59:02;;;;;;;26.02;14.30;;;;;;;4.92;100.00;95732.47;5064569;28;20054;-61
2022/01/02 01:01:34;;;;;;;28.98;15.68;;;;;;;4.94;100.00;95730.50;5065116;28;20079;-61
2022/01/02 01:04:02;;;;;;;30.92;14.38;;;;;;;4.89;100.00;95737.97;5063222;28;20456;-61
2022/01/02 01:06:35;;;;;;;27.58;14.15;;;;;;;4.92;100.00;95742.78;5069325;28;20040;-61
2022/01/02 01:09:05;;;;;;;22.15;12.90;;;;;;;4.93;100.00;95744.38;5068267;28;20131;-61
2022/01/02 01:11:32;;;;;;;26.75;14.55;;;;;;;4.88;100.00;95741.50;5064260;28;20506;-61
2022/01/02 01:14:00;;;;;;;25.92;12.63;;;;;;;4.82;100.00;95743.00;5064170;28;20047;-61
2022/01/02 01:16:28;;;;;;;26.02;11.02;;;;;;;4.78;100.00;95734.78;5063166;28;20040;-60
2022/01/02 01:18:57;;;;;;;25.17;14.20;;;;;;;4.75;100.00;95742.91;5068564;28;20040;-61
2022/01/02 01:21:25;;;;;;;25.45;12.07;;;;;;;4.73;100.00;95736.28;5070063;28;20417;-61
2022/01/02 01:23:52;;;;;;;26.50;12.95;;;;;;;4.79;100.00;95744.16;5066044;28;20036;-61
2022/01/02 01:26:22;;;;;;;22.35;12.15;;;;;;;4.83;100.00;95736.06;5067706;28;20041;-61
2022/01/02 01:28:49;;;;;;;27.80;12.68;;;;;;;4.87;100.00;95740.72;5063942;28;20040;-61
2022/01/02 01:31:16;;;;;;;21.50;11.10;;;;;;;4.90;100.00;95742.16;5068883;28;20049;-61
2022/01/02 01:33:43;;;;;;;28.17;12.55;;;;;;;4.92;100.00;95740.19;5064987;28;20028;-61
2022/01/02 01:36:09;;;;;;;20.52;11.40;;;;;;;4.95;100.00;95747.56;5062926;28;20075;-61
2022/01/02 01:38:36;;;;;;;21.38;10.65;;;;;;;4.97;100.00;95738.69;5064722;28;20127;-61
2022/01/02 01:41:10;;;;;;;23.23;12.13;;;;;;;4.93;100.00;95745.19;5063420;28;20055;-61
2022/01/02 01:43:40;;;;;;;19.63;11.18;;;;;;;4.92;100.00;95737.63;5062029;28;20110;-61
2022/01/02 01:46:08;;;;;;;19.17;10.23;;;;;;;4.85;100.00;95727.19;5065367;28;20052;-61
2022/01/02 01:48:35;;;;;;;20.92;10.70;;;;;;;4.87;100.00;95729.59;5063546;28;20044;-61
2022/01/02 01:51:02;;;;;;;20.38;9.93;;;;;;;4.89;100.00;95740.53;5063534;28;20072;-61
2022/01/02 01:53:28;;;;;;;24.83;13.23;;;;;;;4.87;100.00;95729.59;5061505;28;20124;-61
2022/01/02 01:55:56;;;;;;;23.00;12.13;;;;;;;4.87;100.00;95724.44;5061902;28;20070;-61
2022/01/02 01:58:25;;;;;;;22.33;10.00;;;;;;;4.87;100.00;95727.81;5066417;28;20040;-60
2022/01/02 02:00:52;;;;;;;18.15;9.60;;;;;;;4.94;100.00;95727.91;5065248;28;20044;-61
2022/01/02 02:03:41;;;;;;;33.22;15.55;;;;;;;4.94;100.00;95730.50;5061638;28;20124;-60
2022/01/02 02:06:10;;;;;;;20.27;10.75;;;;;;;4.91;100.00;95725.69;5061748;28;20054;-61
2022/01/02 02:08:36;;;;;;;18.90;9.07;;;;;;;4.85;100.00;95731.53;5062479;28;20522;-61
2022/01/02 02:11:04;;;;;;;16.25;9.35;;;;;;;4.75;100.00;95722.25;5061976;28;20071;-61
2022/01/02 02:13:33;;;;;;;14.63;8.32;;;;;;;4.71;100.00;95731.28;5062230;28;20049;-61
2022/01/02 02:16:04;;;;;;;13.88;8.45;;;;;;;4.68;100.00;95730.84;5068856;28;20131;-61
2022/01/02 02:18:31;;;;;;;17.05;9.23;;;;;;;4.61;100.00;95730.75;5062027;28;20044;-60
2022/01/02 02:20:59;;;;;;;15.13;8.00;;;;;;;4.45;100.00;95726.47;5063111;28;20113;-61
2022/01/02 02:23:29;;;;;;;14.23;7.95;;;;;;;4.37;100.00;95735.03;5062659;28;20090;-61
2022/01/02 02:25:56;;;;;;;20.00;9.75;;;;;;;4.25;100.00;95731.25;5062124;28;20086;-61
2022/01/02 02:28:27;;;;;;;21.27;11.10;;;;;;;4.20;100.00;95733.53;5062404;28;20424;-61
2022/01/02 02:30:57;;;;;;;20.70;10.10;;;;;;;4.14;100.00;95734.19;5060558;28;20052;-60
2022/01/02 02:33:24;;;;;;;21.08;11.55;;;;;;;4.08;100.00;95732.31;5066563;28;20464;-61
2022/01/02 02:35:52;;;;;;;20.10;10.27;;;;;;;3.98;100.00;95735.06;5061413;28;20074;-61
2022/01/02 02:38:19;;;;;;;17.45;9.32;;;;;;;3.98;100.00;95735.88;5061096;28;20123;-60
2022/01/02 02:40:51;;;;;;;17.90;10.00;;;;;;;3.98;100.00;95730.72;5063798;28;20064;-61
2022/01/02 02:51:26;;;;;;;29.35;9.82;;;;;;;3.82;100.00;95735.94;5061305;28;20521;-61
2022/01/02 02:53:54;;;;;;;33.17;15.95;;;;;;;3.69;100.00;95735.66;5060843;28;20040;-61
2022/01/02 02:58:51;;;;;;;21.63;11.18;;;;;;;3.66;100.00;95743.72;5066205;28;20040;-61
2022/01/02 03:01:20;;;;;;;21.65;11.35;;;;;;;3.61;100.00;95739.84;5065117;28;20064;-61
2022/01/02 03:03:49;;;;;;;16.40;9.70;;;;;;;3.58;100.00;95750.50;5060113;28;20044;-61
2022/01/02 03:06:18;;;;;;;19.40;9.75;;;;;;;3.58;100.00;95745.38;5062698;28;20049;-61
2022/01/02 03:08:46;;;;;;;20.08;11.35;;;;;;;3.60;100.00;95743.41;5059967;28;20097;-61
2022/01/02 03:11:17;;;;;;;32.72;15.20;;;;;;;3.62;100.00;95746.63;5061143;28;20052;-61
2022/01/02 03:13:46;;;;;;;26.27;12.95;;;;;;;3.63;100.00;95737.91;5059412;28;20076;-61
2022/01/02 03:16:14;;;;;;;20.40;10.18;;;;;;;3.62;100.00;95741.47;5061424;28;20754;-61
2022/01/02 03:18:41;;;;;;;34.00;13.68;;;;;;;3.59;100.00;95741.00;5065035;28;20053;-61
2022/01/02 03:21:09;;;;;;;28.10;13.07;;;;;;;3.53;100.00;95737.31;5061865;28;20073;-61
2022/01/02 03:23:36;;;;;;;22.10;10.73;;;;;;;3.45;100.00;95734.75;5065573;28;20480;-60
2022/01/02 03:26:05;;;;;;;19.23;8.50;;;;;;;3.37;100.00;95742.50;5062825;28;20593;-61
2022/01/02 03:28:33;;;;;;;17.98;9.80;;;;;;;3.25;100.00;95740.25;5060081;28;20076;-61
2022/01/02 03:31:00;;;;;;;14.77;8.00;;;;;;;3.14;100.00;95740.56;5061077;28;20044;-60
2022/01/02 03:33:32;;;;;;;16.55;8.45;;;;;;;3.01;100.00;95742.84;5059285;28;20062;-61
2022/01/02 03:36:00;;;;;;;14.90;7.65;;;;;;;2.96;100.00;95745.09;5063448;28;20049;-61
2022/01/02 03:38:27;;;;;;;18.25;7.75;;;;;;;2.90;100.00;95745.72;5061078;28;20045;-61
2022/01/02 03:40:55;;;;;;;14.25;8.85;;;;;;;2.77;100.00;95731.56;5063151;28;20543;-61
2022/01/02 03:43:22;;;;;;;16.30;9.43;;;;;;;2.84;100.00;95747.16;5060023;28;20045;-61
2022/01/02 03:45:49;;;;;;;20.67;10.30;;;;;;;2.84;100.00;95752.31;5059485;28;20041;-60
2022/01/02 03:48:16;;;;;;;18.38;9.13;;;;;;;2.82;100.00;95755.03;5060723;28;20111;-61
2022/01/02 03:50:44;;;;;;;17.45;9.23;;;;;;;2.75;100.00;95754.06;5061671;28;20045;-61
2022/01/02 03:53:10;;;;;;;16.60;8.43;;;;;;;2.76;100.00;95750.56;5059490;28;20053;-61
2022/01/02 03:55:39;;;;;;;14.63;8.50;;;;;;;2.68;100.00;95750.53;5061564;28;20053;-61
2022/01/02 03:58:07;;;;;;;13.88;8.82;;;;;;;2.74;100.00;95757.63;5060809;28;20080;-61
2022/01/02 04:00:34;;;;;;;17.33;9.35;;;;;;;2.68;100.00;95759.06;5059230;28;20525;-60
2022/01/02 04:03:01;;;;;;;26.00;10.90;;;;;;;2.74;100.00;95755.06;5061129;28;20041;-61
2022/01/02 04:05:28;;;;;;;18.35;10.10;;;;;;;2.72;100.00;95759.56;5059962;28;20037;-61
2022/01/02 04:07:55;;;;;;;25.83;13.48;;;;;;;2.78;100.00;95764.06;5066407;28;20048;-61
2022/01/02 04:10:22;;;;;;;29.30;16.42;;;;;;;2.84;100.00;95770.31;5059563;28;20049;-61
2022/01/02 04:12:49;;;;;;;28.33;13.40;;;;;;;2.85;100.00;95769.38;5059570;28;20843;-61
2022/01/02 04:15:17;;;;;;;39.17;16.63;;;;;;;2.84;100.00;95768.53;5061201;28;20043;-61
2022/01/02 04:17:43;;;;;;;26.15;12.82;;;;;;;2.78;100.00;95769.19;5062483;28;20052;-61
2022/01/02 04:20:14;;;;;;;29.05;16.33;;;;;;;2.75;100.00;95766.13;5068033;28;20060;-61
2022/01/02 04:22:41;;;;;;;27.42;15.18;;;;;;;2.67;100.00;95777.22;5059525;28;20044;-61
2022/01/02 04:25:10;;;;;;;16.27;9.48;;;;;;;2.64;100.00;95772.38;5061025;28;20130;-61
2022/01/02 04:27:37;;;;;;;39.83;20.13;;;;;;;2.60;100.00;95771.09;5061297;28;20079;-61
2022/01/02 04:30:07;;;;;;;49.17;25.13;;;;;;;2.45;100.00;95769.16;5058000;28;20048;-61
2022/01/02 04:32:34;;;;;;;56.88;27.80;;;;;;;2.43;100.00;95786.50;5060619;28;20413;-61
2022/01/02 04:35:01;;;;;;;24.35;13.00;;;;;;;2.35;100.00;95783.88;5064051;28;20064;-60
2022/01/02 04:37:29;;;;;;;14.73;8.85;;;;;;;2.32;100.00;95789.34;5065640;28;20098;-61
2022/01/02 04:39:56;;;;;;;16.08;7.90;;;;;;;2.25;100.00;95793.50;5063409;28;20119;-61
2022/01/02 04:42:23;;;;;;;20.67;11.45;;;;;;;2.25;100.00;95783.22;5061967;28;20044;-60
2022/01/02 04:44:50;;;;;;;28.10;16.40;;;;;;;2.19;100.00;95783.84;5064301;28;20032;-61
2022/01/02 04:47:17;;;;;;;22.00;10.65;;;;;;;2.20;100.00;95790.59;5064898;28;20121;-61
2022/01/02 04:49:44;;;;;;;16.83;9.90;;;;;;;2.22;100.00;95778.41;5065728;28;20124;-60
2022/01/02 04:52:11;;;;;;;14.15;7.90;;;;;;;2.29;100.00;95781.97;5064813;28;20800;-61
2022/01/02 04:54:38;;;;;;;20.50;8.90;;;;;;;2.31;100.00;95792.09;5068995;28;20565;-61
2022/01/02 04:57:05;;;;;;;19.13;8.85;;;;;;;2.36;100.00;95800.94;5069879;28;20509;-60
2022/01/02 04:59:32;;;;;;;21.58;9.27;;;;;;;2.42;100.00;95794.38;5064126;28;20056;-61
2022/01/02 05:02:00;;;;;;;17.33;9.70;;;;;;;2.43;100.00;95796.78;5063288;28;20527;-61
2022/01/02 05:04:27;;;;;;;19.98;10.48;;;;;;;2.41;100.00;95788.44;5061801;28;20044;-60
2022/01/02 05:06:54;;;;;;;25.88;10.80;;;;;;;2.43;100.00;95791.66;5065483;28;20120;-61
2022/01/02 05:09:20;;;;;;;20.63;10.48;;;;;;;2.43;100.00;95801.94;5064341;28;20121;-61
2022/01/02 05:11:48;;;;;;;25.15;13.20;;;;;;;2.47;100.00;95798.06;5067956;28;20513;-60
2022/01/02 05:14:14;;;;;;;25.85;12.32;;;;;;;2.45;100.00;95794.84;5063690;28;20043;-61
2022/01/02 05:16:41;;;;;;;29.15;14.60;;;;;;;2.45;100.00;95794.84;5063957;28;20053;-61
2022/01/02 05:19:08;;;;;;;26.40;14.10;;;;;;;2.42;100.00;95800.31;5065704;28;20083;-61
2022/01/02 05:21:35;;;;;;;39.83;20.13;;;;;;;2.35;100.00;95799.31;5067823;28;20036;-61
2022/01/02 05:24:03;;;;;;;35.05;18.80;;;;;;;2.32;100.00;95788.53;5064822;28;20053;-61
2022/01/02 05:26:31;;;;;;;34.38;16.10;;;;;;;2.31;100.00;95798.03;5064594;28;20365;-61
2022/01/02 05:28:58;;;;;;;33.00;16.33;;;;;;;2.19;100.00;95801.84;5073099;28;20052;-61
2022/01/02 05:31:24;;;;;;;89.78;39.03;;;;;;;2.06;100.00;95800.50;5063803;28;20067;-61
2022/01/02 05:33:51;;;;;;;92.43;39.80;;;;;;;1.99;100.00;95799.50;5075079;28;20052;-61
2022/01/02 05:36:19;;;;;;;36.20;19.23;;;;;;;2.00;100.00;95805.44;5062923;28;20048;-61
2022/01/02 05:38:46;;;;;;;26.58;12.65;;;;;;;1.97;100.00;95798.84;5066581;28;20056;-61
2022/01/02 05:41:14;;;;;;;36.33;18.80;;;;;;;1.83;100.00;95794.28;5067138;28;20051;-61
2022/01/02 05:43:41;;;;;;;54.60;28.88;;;;;;;1.91;100.00;95796.91;5063893;28;20557;-61
2022/01/02 05:46:08;;;;;;;39.42;20.85;;;;;;;1.92;100.00;95803.63;5062328;28;20525;-61
2022/01/02 05:48:36;;;;;;;26.83;14.27;;;;;;;1.88;100.00;95802.34;5063187;28;20130;-61
2022/01/02 05:51:03;;;;;;;20.23;10.07;;;;;;;1.85;100.00;95797.50;5064594;28;20135;-60
2022/01/02 05:53:31;;;;;;;19.95;10.90;;;;;;;1.80;100.00;95797.13;5063347;28;20049;-60
2022/01/02 05:55:58;;;;;;;21.05;11.23;;;;;;;1.81;100.00;95802.13;5065579;28;20050;-60
2022/01/02 05:58:25;;;;;;;18.98;9.32;;;;;;;1.81;100.00;95801.34;5064206;28;20587;-60
2022/01/02 06:00:52;;;;;;;17.77;9.20;;;;;;;1.83;100.00;95804.56;5062950;28;20043;-61
2022/01/02 06:03:20;;;;;;;17.27;9.57;;;;;;;1.82;100.00;95800.34;5061581;28;20587;-60
2022/01/02 06:05:47;;;;;;;17.33;9.25;;;;;;;1.80;100.00;95807.41;5062876;28;20048;-60
2022/01/02 06:08:14;;;;;;;20.33;9.43;;;;;;;1.77;100.00;95810.31;5063272;28;20429;-61
2022/01/02 06:10:42;;;;;;;19.45;9.93;;;;;;;1.69;100.00;95809.31;5060819;28;20044;-60
2022/01/02 06:13:10;;;;;;;22.50;11.57;;;;;;;1.67;100.00;95808.63;5095260;28;21376;-61
2022/01/02 06:15:37;;;;;;;15.85;8.60;;;;;;;1.76;100.00;95808.69;5065798;28;20048;-60
2022/01/02 06:18:04;;;;;;;14.55;9.48;;;;;;;1.76;100.00;95814.63;5063018;28;20068;-60
2022/01/02 06:20:33;;;;;;;17.42;8.45;;;;;;;1.80;100.00;95820.25;5062419;28;20044;-60
2022/01/02 06:23:00;;;;;;;18.33;8.50;;;;;;;1.78;100.00;95822.19;5061049;28;20425;-60
2022/01/02 06:25:27;;;;;;;18.50;9.70;;;;;;;1.79;100.00;95823.81;5062537;28;20037;-60
2022/01/02 06:27:54;;;;;;;20.58;11.57;;;;;;;1.82;100.00;95823.47;5062158;28;20041;-60
2022/01/02 06:30:22;;;;;;;21.67;11.55;;;;;;;1.86;100.00;95829.94;5061392;28;20046;-60
2022/01/02 06:32:54;;;;;;;16.83;8.30;;;;;;;1.84;100.00;95832.66;5060739;28;20068;-60
2022/01/02 06:35:32;;;;;;;18.48;8.75;;;;;;;1.87;100.00;95836.69;5065998;28;20474;-60
2022/01/02 06:38:10;;;;;;;28.85;12.55;;;;;;;1.91;100.00;95827.72;5062737;28;20075;-60
2022/01/02 06:40:38;;;;;;;62.15;31.67;;;;;;;1.94;100.00;95827.41;5063040;28;20053;-60
2022/01/02 06:43:06;;;;;;;38.22;18.08;;;;;;;1.96;100.00;95825.47;5063707;28;20084;-60
2022/01/02 06:45:35;;;;;;;25.92;14.23;;;;;;;2.03;100.00;95836.75;5062322;28;20037;-60
2022/01/02 06:48:03;;;;;;;18.58;9.57;;;;;;;2.10;100.00;95842.91;5067250;28;20048;-60
2022/01/02 06:50:32;;;;;;;13.73;7.90;;;;;;;2.18;100.00;95844.72;5061552;28;20041;-60
2022/01/02 06:53:01;;;;;;;18.58;9.75;;;;;;;2.22;100.00;95829.81;5061530;28;20044;-60
2022/01/02 06:55:28;;;;;;;19.65;10.20;;;;;;;2.41;100.00;95845.00;5065579;28;20036;-60
2022/01/02 06:57:55;;;;;;;20.75;10.40;;;;;;;2.53;100.00;95855.00;5062542;28;20040;-60
2022/01/02 07:00:23;;;;;;;18.05;9.35;;;;;;;2.62;100.00;95857.44;5062273;28;20040;-60
2022/01/02 07:02:50;;;;;;;18.92;10.43;;;;;;;2.74;100.00;95859.69;5066251;28;20055;-61
2022/01/02 07:05:18;;;;;;;20.95;9.65;;;;;;;2.86;100.00;95859.28;5060198;28;20037;-61
2022/01/02 07:07:46;;;;;;;19.58;10.50;;;;;;;3.02;100.00;95862.84;5061236;28;20047;-61
2022/01/02 07:10:16;;;;;;;16.67;9.13;;;;;;;3.18;100.00;95859.47;5092247;28;20541;-60
2022/01/02 07:12:43;;;;;;;18.55;9.93;;;;;;;3.35;100.00;95862.88;5062475;28;20044;-60
2022/01/02 07:15:11;;;;;;;20.30;9.57;;;;;;;3.48;100.00;95865.78;5064955;28;20584;-61
2022/01/02 07:17:38;;;;;;;20.70;11.32;;;;;;;3.67;100.00;95867.22;5072764;28;20955;-60
2022/01/02 07:20:07;;;;;;;36.47;17.65;;;;;;;3.86;100.00;95860.94;5063508;28;20044;-60
2022/01/02 07:22:35;;;;;;;41.15;20.45;;;;;;;4.06;100.00;95876.03;5060651;28;20043;-61
2022/01/02 07:25:03;;;;;;;44.13;20.58;;;;;;;4.27;100.00;95878.88;5061656;28;20037;-61
2022/01/02 07:27:30;;;;;;;31.33;16.08;;;;;;;4.40;100.00;95879.16;5060827;28;20119;-60
2022/01/02 07:29:58;;;;;;;30.00;16.30;;;;;;;4.60;100.00;95878.78;5061899;28;20048;-61
2022/01/02 07:32:25;;;;;;;23.98;13.38;;;;;;;4.83;100.00;95883.19;5061813;28;20040;-60
2022/01/02 07:34:53;;;;;;;30.58;15.43;;;;;;;4.98;100.00;95876.34;5062260;28;20036;-60
2022/01/02 07:37:19;;;;;;;32.00;15.82;;;;;;;5.26;100.00;95883.63;5062392;28;20044;-60
2022/01/02 07:39:46;;;;;;;33.83;18.08;;;;;;;5.49;100.00;95881.81;5061605;28;20048;-61
2022/01/02 07:42:13;;;;;;;36.50;17.85;;;;;;;5.67;100.00;95875.53;5064458;28;20044;-60
2022/01/02 07:44:48;;;;;;;35.30;19.15;;;;;;;5.86;100.00;95875.06;5058893;28;20036;-61
2022/01/02 07:47:15;;;;;;;42.72;18.65;;;;;;;6.07;100.00;95871.03;5061424;28;20553;-61
2022/01/02 07:49:42;;;;;;;33.90;17.58;;;;;;;6.22;100.00;95882.19;5061636;28;20041;-60
2022/01/02 07:52:08;;;;;;;37.05;18.17;;;;;;;6.35;100.00;95878.16;5066874;28;20056;-61
2022/01/02 07:54:35;;;;;;;36.05;18.00;;;;;;;6.54;100.00;95869.88;5062437;28;21375;-61
2022/01/02 07:57:02;;;;;;;25.05;14.32;;;;;;;6.63;100.00;95861.03;5060561;28;20041;-60
2022/01/02 07:59:29;;;;;;;30.70;16.45;;;;;;;6.76;100.00;95870.72;5062731;28;20123;-61
2022/01/02 08:01:57;;;;;;;49.67;30.05;;;;;;;6.85;100.00;95874.03;5060227;28;20044;-61
2022/01/02 08:04:24;;;;;;;25.30;13.27;;;;;;;6.91;100.00;95873.28;5068136;28;20139;-61
2022/01/02 08:06:51;;;;;;;26.92;14.75;;;;;;;6.92;100.00;95869.72;5061921;28;20045;-61
2022/01/02 08:09:18;;;;;;;19.73;12.20;;;;;;;7.11;100.00;95878.69;5062356;28;20032;-60
2022/01/02 08:11:45;;;;;;;21.92;12.20;;;;;;;7.20;100.00;95881.97;5059485;28;20067;-60
2022/01/02 08:14:15;;;;;;;18.42;10.00;;;;;;;7.23;100.00;95873.84;5060627;28;20528;-60
2022/01/02 08:16:43;;;;;;;15.00;9.50;;;;;;;7.33;100.00;95876.94;5063683;28;20044;-61
2022/01/02 08:19:10;;;;;;;18.27;9.75;;;;;;;7.45;100.00;95885.81;5072172;28;20064;-60
2022/01/02 08:21:37;;;;;;;18.17;11.68;;;;;;;7.56;100.00;95886.31;5066505;28;20386;-60
2022/01/02 08:24:07;;;;;;;17.10;11.00;;;;;;;7.62;100.00;95885.56;5068842;28;20480;-61
2022/01/02 08:26:34;;;;;;;20.15;11.18;;;;;;;7.69;100.00;95881.25;5067407;28;20047;-61
2022/01/02 08:29:00;;;;;;;18.27;10.73;;;;;;;7.87;100.00;95882.56;5072620;28;20118;-61
2022/01/02 08:31:28;;;;;;;20.60;10.60;;;;;;;7.99;100.00;95881.06;5066965;28;20072;-61
2022/01/02 08:33:56;;;;;;;20.52;10.73;;;;;;;8.13;100.00;95882.78;5064825;28;20048;-60
2022/01/02 08:36:23;;;;;;;13.40;8.88;;;;;;;8.18;100.00;95884.81;5066802;28;20043;-61
2022/01/02 08:38:51;;;;;;;21.83;11.18;;;;;;;8.28;100.00;95879.25;5062097;28;20048;-62
2022/01/02 08:41:18;;;;;;;18.90;10.88;;;;;;;8.41;100.00;95874.16;5076159;28;20094;-61
2022/01/02 08:43:45;;;;;;;14.85;8.57;;;;;;;8.56;100.00;95892.25;5065011;28;20049;-61
2022/01/02 08:46:12;;;;;;;18.95;10.98;;;;;;;8.65;100.00;95896.28;5060068;28;20536;-61
2022/01/02 08:48:39;;;;;;;18.83;9.50;;;;;;;8.74;100.00;95899.53;5064617;28;20139;-60
2022/01/02 08:51:07;;;;;;;18.20;10.38;;;;;;;8.86;100.00;95898.00;5063453;28;20044;-61
2022/01/02 08:53:34;;;;;;;23.00;10.82;;;;;;;8.92;100.00;95897.19;5060899;28;20399;-61
2022/01/02 08:56:01;;;;;;;16.08;10.27;;;;;;;9.06;100.00;95897.28;5064464;28;20151;-61
2022/01/02 08:58:28;;;;;;;17.45;9.50;;;;;;;9.09;100.00;95891.66;5065350;28;20044;-61
2022/01/02 09:01:00;;;;;;;115.25;52.55;;;;;;;9.01;100.00;95879.66;5068866;28;20051;-61
2022/01/02 09:03:27;;;;;;;32.65;16.52;;;;;;;9.17;100.00;95878.50;5067127;28;20460;-61
2022/01/02 09:05:54;;;;;;;20.65;11.13;;;;;;;9.33;100.00;95883.34;5066125;28;20517;-61
2022/01/02 09:08:26;;;;;;;17.35;10.48;;;;;;;9.43;100.00;95887.34;5064965;28;20051;-61
2022/01/02 09:10:53;;;;;;;14.02;8.70;;;;;;;9.47;100.00;95878.16;5064480;28;20045;-61
2022/01/02 09:13:23;;;;;;;15.93;8.55;;;;;;;9.52;100.00;95880.97;5065476;28;20036;-61
2022/01/02 09:15:50;;;;;;;16.52;10.07;;;;;;;9.53;100.00;95882.56;5068916;28;20585;-61
2022/01/02 09:18:18;;;;;;;13.85;8.48;;;;;;;9.56;100.00;95882.16;5065126;28;20127;-61
2022/01/02 09:20:45;;;;;;;15.25;8.65;;;;;;;9.60;100.00;95887.78;5064350;28;20055;-61
2022/01/02 09:23:12;;;;;;;18.67;10.77;;;;;;;9.68;100.00;95864.97;5065100;28;20453;-61
2022/01/02 09:25:39;;;;;;;18.08;9.57;;;;;;;9.87;100.00;95867.78;5095196;28;20123;-61
2022/01/02 09:28:06;;;;;;;19.70;10.23;;;;;;;10.01;100.00;95863.38;5063814;28;20045;-61
2022/01/02 09:30:33;;;;;;;15.18;9.45;;;;;;;10.00;100.00;95867.78;5066383;28;20040;-62
2022/01/02 09:33:01;;;;;;;18.17;10.32;;;;;;;10.01;100.00;95853.78;5066960;28;20040;-61
2022/01/02 09:35:28;;;;;;;18.67;10.27;;;;;;;10.15;100.00;95859.75;5066982;28;20039;-61
2022/01/02 09:37:55;;;;;;;18.38;11.02;;;;;;;10.18;100.00;95843.72;5067325;28;20587;-61
2022/01/02 09:40:25;;;;;;;13.75;9.10;;;;;;;10.21;100.00;95842.50;5064174;28;20048;-61
2022/01/02 09:42:56;;;;;;;11.30;6.75;;;;;;;10.20;100.00;95830.50;5064074;28;20051;-61
2022/01/02 09:45:24;;;;;;;15.93;9.43;;;;;;;10.25;100.00;95833.31;5062926;28;20383;-59
2022/01/02 09:47:51;;;;;;;13.88;7.72;;;;;;;10.40;100.00;95838.31;5063548;28;20494;-62
2022/01/02 09:50:18;;;;;;;11.65;7.68;;;;;;;10.49;100.00;95824.84;5063056;28;20113;-62
2022/01/02 09:52:46;;;;;;;11.50;6.88;;;;;;;10.64;100.00;95826.41;5064136;28;20595;-61
2022/01/02 09:55:13;;;;;;;14.18;8.25;;;;;;;10.77;99.94;95821.16;5068992;28;20037;-62
2022/01/02 09:57:45;;;;;;;15.95;8.15;;;;;;;10.74;99.91;95824.16;5063878;28;20045;-62
2022/01/02 10:00:13;;;;;;;14.77;8.80;;;;;;;10.86;99.22;95824.31;5062177;28;20078;-61
2022/01/02 10:03:09;;;;;;;15.13;8.75;;;;;;;10.96;98.18;95818.63;5064094;28;20094;-62
2022/01/02 10:05:51;;;;;;;12.77;7.60;;;;;;;11.01;97.89;95821.44;5064851;28;20429;-62
2022/01/02 10:08:20;;;;;;;13.95;7.68;;;;;;;11.00;97.05;95819.81;5065203;28;20071;-62
2022/01/02 10:10:47;;;;;;;11.40;7.80;;;;;;;11.14;95.55;95816.13;5064456;28;20523;-62
2022/01/02 10:13:14;;;;;;;10.70;7.43;;;;;;;11.19;96.29;95812.91;5068743;28;20032;-62
2022/01/02 10:15:42;;;;;;;11.85;6.22;;;;;;;11.22;95.38;95813.28;5076391;28;20097;-62
2022/01/02 10:18:10;;;;;;;7.90;4.93;;;;;;;11.18;93.56;95812.13;5065055;28;20050;-62
2022/01/02 10:20:45;;;;;;;8.90;5.15;;;;;;;11.36;92.00;95807.97;5064002;28;20033;-62
2022/01/02 10:23:17;;;;;;;9.57;5.53;;;;;;;11.45;92.06;95806.69;5074153;28;20068;-61
2022/01/02 10:25:47;;;;;;;9.25;5.55;;;;;;;11.53;90.52;95809.06;5069191;28;20115;-63
2022/01/02 10:28:30;;;;;;;7.68;5.30;;;;;;;11.58;89.61;95796.16;5064034;28;20044;-62
2022/01/02 10:31:00;;;;;;;10.85;5.53;;;;;;;11.65;90.46;95786.47;5065853;28;20144;-62
2022/01/02 10:33:33;;;;;;;13.77;6.90;;;;;;;11.63;89.98;95795.50;5063848;28;20116;-62
2022/01/02 10:36:02;;;;;;;8.75;4.57;;;;;;;11.43;90.72;95787.84;5064138;28;20036;-61
2022/01/02 10:38:31;;;;;;;11.27;5.75;;;;;;;11.54;91.79;95792.41;5063981;28;20051;-61
2022/01/02 10:40:58;;;;;;;8.48;5.45;;;;;;;11.67;89.96;95788.88;5063594;28;20052;-60
2022/01/02 10:43:33;;;;;;;15.15;5.80;;;;;;;11.54;89.01;95768.91;5070139;28;20043;-63
2022/01/02 10:46:06;;;;;;;10.75;6.00;;;;;;;11.65;90.15;95776.03;5063700;28;20040;-61
2022/01/02 10:48:35;;;;;;;9.15;5.85;;;;;;;11.78;89.80;95764.69;5064516;28;20036;-61
2022/01/02 10:51:14;;;;;;;10.13;6.03;;;;;;;11.92;88.14;95768.00;5063722;28;20044;-61
2022/01/02 10:53:56;;;;;;;9.77;6.05;;;;;;;11.97;87.85;95756.91;5066096;28;20040;-62
2022/01/02 10:56:25;;;;;;;9.13;4.90;;;;;;;12.03;87.91;95759.44;5068130;28;20040;-62
2022/01/02 10:58:58;;;;;;;8.95;5.30;;;;;;;12.09;85.54;95762.22;5065704;28;20040;-62
2022/01/02 11:01:25;;;;;;;9.43;4.45;;;;;;;12.17;85.53;95767.13;5064584;28;20059;-62
2022/01/02 11:03:54;;;;;;;5.80;4.00;;;;;;;12.23;86.46;95761.06;5063425;28;20056;-62
2022/01/02 11:06:29;;;;;;;8.00;4.65;;;;;;;12.34;84.68;95762.13;5063839;28;20047;-61
2022/01/02 11:08:59;;;;;;;7.00;4.43;;;;;;;12.55;83.77;95758.25;5062272;28;20836;-62
2022/01/02 11:11:26;;;;;;;7.97;4.30;;;;;;;12.33;81.91;95750.88;5064486;28;20056;-62
2022/01/02 11:13:53;;;;;;;6.38;4.03;;;;;;;12.53;82.56;95752.44;5069411;28;20056;-62
2022/01/02 11:16:20;;;;;;;8.82;4.93;;;;;;;12.55;83.56;95753.03;5068833;28;20086;-62
2022/01/02 11:18:48;;;;;;;7.50;4.82;;;;;;;12.47;82.48;95753.34;5067377;28;20051;-61
2022/01/02 11:21:16;;;;;;;7.25;4.30;;;;;;;12.48;82.30;95749.69;5069389;28;20048;-62
2022/01/02 11:24:20;;;;;;;8.40;5.30;;;;;;;12.48;81.79;95741.84;5067598;28;20518;-62
2022/01/02 11:26:55;;;;;;;7.25;4.70;;;;;;;12.50;82.65;95742.47;5064272;28;20054;-62
2022/01/02 11:29:27;;;;;;;5.97;4.00;;;;;;;12.37;81.40;95741.59;5066575;28;20066;-61
2022/01/02 11:31:55;;;;;;;7.63;4.32;;;;;;;12.41;82.69;95732.28;5068673;28;20464;-61
2022/01/02 11:34:24;;;;;;;7.05;4.05;;;;;;;12.53;82.85;95734.16;5072236;28;20036;-61
2022/01/02 11:37:13;;;;;;;7.30;5.28;;;;;;;12.65;82.18;95742.06;5064723;28;20372;-62
2022/01/02 11:40:01;;;;;;;8.40;3.45;;;;;;;12.64;80.23;95743.88;5067837;28;20042;-62